createdAt,value
2018-12-02T00:00:54.524Z,9.97
2018-12-02T00:03:23.672Z,9.96
2018-12-02T00:05:52.588Z,10.28
2018-12-02T00:08:21.541Z,10.08
2018-12-02T00:10:50.423Z,10.09
2018-12-02T00:13:19.335Z,9.91
2018-12-02T00:15:48.287Z,9.99
2018-12-02T00:18:17.179Z,9.97
2018-12-02T00:20:46.075Z,9.97
2018-12-02T00:23:14.962Z,10.28
2018-12-02T00:25:43.863Z,10.47
2018-12-02T00:28:12.750Z,10.18
2018-12-02T00:30:41.664Z,10.14
2018-12-02T00:33:10.589Z,10.06
2018-12-02T00:35:39.507Z,10.16
2018-12-02T00:38:08.941Z,10.20
2018-12-02T00:40:37.837Z,10.05
2018-12-02T00:43:07.856Z,9.97
2018-12-02T00:45:37.658Z,10.02
2018-12-02T00:48:07.736Z,9.98
2018-12-02T00:50:36.669Z,10.02
2018-12-02T00:53:06.968Z,9.82
2018-12-02T00:55:43.025Z,9.97
2018-12-02T00:58:11.902Z,9.94
2018-12-02T01:00:40.808Z,10.29
2018-12-02T01:03:10.432Z,10.07
2018-12-02T01:05:39.337Z,10.37
2018-12-02T01:08:08.304Z,10.15
2018-12-02T01:10:37.409Z,10.07
2018-12-02T01:13:10.104Z,10.31
2018-12-02T01:15:40.221Z,10.14
2018-12-02T01:18:09.584Z,10.21
2018-12-02T01:20:39.303Z,10.41
2018-12-02T01:23:08.277Z,10.27
2018-12-02T01:25:37.261Z,10.22
2018-12-02T01:28:06.671Z,10.30
2018-12-02T01:30:35.697Z,10.20
2018-12-02T01:33:04.619Z,10.26
2018-12-02T01:35:33.493Z,10.23
2018-12-02T01:38:02.393Z,10.27
2018-12-02T01:40:31.283Z,10.28
2018-12-02T01:43:00.189Z,10.29
2018-12-02T01:45:29.122Z,10.28
2018-12-02T01:47:58.015Z,10.15
2018-12-02T01:50:27.213Z,10.22
2018-12-02T01:52:56.944Z,10.17
2018-12-02T01:55:25.862Z,10.31
2018-12-02T01:57:54.745Z,10.32
2018-12-02T02:00:27.781Z,10.18
2018-12-02T02:02:57.212Z,10.33
2018-12-02T02:05:26.851Z,10.38
2018-12-02T02:07:55.726Z,10.35
2018-12-02T02:10:28.318Z,10.39
2018-12-02T02:12:57.225Z,10.31
2018-12-02T02:15:26.139Z,10.32
2018-12-02T02:17:55.007Z,10.42
2018-12-02T02:20:24.705Z,10.45
2018-12-02T02:22:53.705Z,10.36
2018-12-02T02:25:23.505Z,10.37
2018-12-02T02:27:54.109Z,10.29
2018-12-02T02:30:24.152Z,10.42
2018-12-02T02:32:53.077Z,10.20
2018-12-02T02:35:22.543Z,10.27
2018-12-02T02:37:55.323Z,10.34
2018-12-02T02:40:30.651Z,10.38
2018-12-02T02:42:59.528Z,10.41
2018-12-02T02:45:28.434Z,10.29
2018-12-02T02:47:57.335Z,10.29
2018-12-02T02:50:26.546Z,10.29
2018-12-02T02:52:59.586Z,10.35
2018-12-02T02:55:28.506Z,10.27
2018-12-02T02:57:57.480Z,10.40
2018-12-02T03:00:29.549Z,10.76
2018-12-02T03:02:58.431Z,10.61
2018-12-02T03:05:27.296Z,10.49
2018-12-02T03:07:56.192Z,10.41
2018-12-02T03:10:25.089Z,10.53
2018-12-02T03:12:54.427Z,10.41
2018-12-02T03:15:23.926Z,10.57
2018-12-02T03:17:52.816Z,10.52
2018-12-02T03:20:22.529Z,10.54
2018-12-02T03:22:54.936Z,10.47
2018-12-02T03:25:24.811Z,10.51
2018-12-02T03:27:53.866Z,10.35
2018-12-02T03:30:23.430Z,10.45
2018-12-02T03:32:52.396Z,10.49
2018-12-02T03:35:22.243Z,10.77
2018-12-02T03:37:51.441Z,10.62
2018-12-02T03:40:27.488Z,10.53
2018-12-02T03:42:56.463Z,10.56
2018-12-02T03:45:28.537Z,10.57
2018-12-02T03:47:58.168Z,10.47
2018-12-02T03:50:27.059Z,10.41
2018-12-02T03:52:55.966Z,10.41
2018-12-02T03:55:24.849Z,10.46
2018-12-02T03:57:54.024Z,10.37
2018-12-02T04:00:24.219Z,10.44
2018-12-02T04:02:53.964Z,10.81
2018-12-02T04:05:26.433Z,10.63
2018-12-02T04:07:55.326Z,10.59
2018-12-02T04:10:24.218Z,10.61
2018-12-02T04:12:53.455Z,10.48
2018-12-02T04:15:25.655Z,10.53
2018-12-02T04:17:54.526Z,10.56
2018-12-02T04:20:23.428Z,10.52
2018-12-02T04:22:52.736Z,10.52
2018-12-02T04:25:25.462Z,10.50
2018-12-02T04:27:54.335Z,10.55
2018-12-02T04:30:23.726Z,10.46
2018-12-02T04:32:53.250Z,10.39
2018-12-02T04:35:25.811Z,10.80
2018-12-02T04:37:54.754Z,10.51
2018-12-02T04:40:23.640Z,10.58
2018-12-02T04:42:52.522Z,10.57
2018-12-02T04:45:21.407Z,10.62
2018-12-02T04:47:50.405Z,10.57
2018-12-02T04:50:25.430Z,10.70
2018-12-02T04:52:54.318Z,10.73
2018-12-02T04:55:23.222Z,10.57
2018-12-02T04:57:52.138Z,10.64
2018-12-02T05:00:21.491Z,10.68
2018-12-02T05:02:51.288Z,10.58
2018-12-02T05:05:24.098Z,10.48
2018-12-02T05:07:53.591Z,10.52
2018-12-02T05:10:22.616Z,10.61
2018-12-02T05:12:51.814Z,10.60
2018-12-02T05:15:21.386Z,10.55
2018-12-02T05:17:50.295Z,10.57
2018-12-02T05:20:20.220Z,10.64
2018-12-02T05:22:49.101Z,10.59
2018-12-02T05:25:18.746Z,10.51
2018-12-02T05:27:47.290Z,10.64
2018-12-02T05:30:22.739Z,10.68
2018-12-02T05:32:54.742Z,10.67
2018-12-02T05:35:23.606Z,11.00
2018-12-02T05:37:55.532Z,10.80
2018-12-02T05:40:24.699Z,10.72
2018-12-02T05:42:54.088Z,10.75
2018-12-02T05:45:23.209Z,10.69
2018-12-02T05:47:52.135Z,10.64
2018-12-02T05:50:24.823Z,10.72
2018-12-02T05:53:00.227Z,10.76
2018-12-02T05:55:30.380Z,10.72
2018-12-02T05:57:59.266Z,10.73
2018-12-02T06:00:28.160Z,10.76
2018-12-02T06:02:57.058Z,10.69
2018-12-02T06:05:25.966Z,10.76
2018-12-02T06:07:54.885Z,10.65
2018-12-02T06:10:23.867Z,10.69
2018-12-02T06:12:52.764Z,10.76
2018-12-02T06:15:21.929Z,10.84
2018-12-02T06:17:50.845Z,10.86
2018-12-02T06:20:26.520Z,10.78
2018-12-02T06:22:56.256Z,10.72
2018-12-02T06:25:25.160Z,10.69
2018-12-02T06:27:54.115Z,10.69
2018-12-02T06:30:29.448Z,10.70
2018-12-02T06:32:59.602Z,10.66
2018-12-02T06:35:28.533Z,10.64
2018-12-02T06:37:58.519Z,10.61
2018-12-02T06:40:28.319Z,10.58
2018-12-02T06:42:57.192Z,10.72
2018-12-02T06:45:26.118Z,10.94
2018-12-02T06:47:55.003Z,11.14
2018-12-02T06:50:27.679Z,10.94
2018-12-02T06:52:57.269Z,10.90
2018-12-02T06:55:59.849Z,10.90
2018-12-02T06:59:11.825Z,10.91
2018-12-02T07:02:24.000Z,11.11
2018-12-02T07:04:52.897Z,10.77
2018-12-02T07:07:21.769Z,10.86
2018-12-02T07:09:50.683Z,10.82
2018-12-02T07:12:19.550Z,10.88
2018-12-02T07:14:48.464Z,10.86
2018-12-02T07:17:17.364Z,10.96
2018-12-02T07:19:48.643Z,10.96
2018-12-02T07:22:20.874Z,10.95
2018-12-02T07:24:51.244Z,10.95
2018-12-02T07:27:20.135Z,10.95
2018-12-02T07:29:49.011Z,10.93
2018-12-02T07:32:17.891Z,10.87
2018-12-02T07:34:46.783Z,10.95
2018-12-02T07:37:20.421Z,10.93
2018-12-02T07:40:28.018Z,11.03
2018-12-02T07:42:56.949Z,11.02
2018-12-02T07:45:25.823Z,11.08
2018-12-02T07:47:54.720Z,11.09
2018-12-02T07:50:23.620Z,11.07
2018-12-02T07:52:52.529Z,11.06
2018-12-02T07:55:21.409Z,11.08
2018-12-02T07:57:50.284Z,11.13
2018-12-02T08:00:19.154Z,11.17
2018-12-02T08:02:48.101Z,11.17
2018-12-02T08:05:17.649Z,11.30
2018-12-02T08:07:48.081Z,11.26
2018-12-02T08:10:17.996Z,11.29
2018-12-02T08:12:46.887Z,11.31
2018-12-02T08:15:17.016Z,11.32
2018-12-02T08:17:45.912Z,11.43
2018-12-02T08:20:15.946Z,11.45
2018-12-02T08:22:51.121Z,11.55
2018-12-02T08:25:15.347Z,11.58
2018-12-02T08:27:44.252Z,11.64
2018-12-02T08:30:20.284Z,11.60
2018-12-02T08:32:49.184Z,11.59
2018-12-02T08:35:19.263Z,11.67
2018-12-02T08:37:52.072Z,11.77
2018-12-02T08:40:20.971Z,11.75
2018-12-02T08:42:49.876Z,11.78
2018-12-02T08:45:19.145Z,11.77
2018-12-02T08:47:48.047Z,11.89
2018-12-02T08:50:17.862Z,11.91
2018-12-02T08:52:47.895Z,11.95
2018-12-02T08:55:17.785Z,12.06
2018-12-02T08:57:47.075Z,12.01
2018-12-02T09:00:19.608Z,12.12
2018-12-02T09:03:08.692Z,12.47
2018-12-02T09:05:37.560Z,12.34
2018-12-02T09:08:07.945Z,12.40
2018-12-02T09:10:36.882Z,12.36
2018-12-02T09:13:07.761Z,12.42
2018-12-02T09:15:36.666Z,12.45
2018-12-02T09:18:07.799Z,12.40
2018-12-02T09:20:36.702Z,12.47
2018-12-02T09:23:07.194Z,12.79
2018-12-02T09:25:36.153Z,12.58
2018-12-02T09:28:05.409Z,12.67
2018-12-02T09:30:35.319Z,12.60
2018-12-02T09:33:04.239Z,12.68
2018-12-02T09:35:33.141Z,12.66
2018-12-02T09:38:02.037Z,12.60
2018-12-02T09:40:30.927Z,12.58
2018-12-02T09:42:59.844Z,12.68
2018-12-02T09:45:29.603Z,12.70
2018-12-02T09:48:00.211Z,12.75
2018-12-02T09:50:29.702Z,12.77
2018-12-02T09:52:59.676Z,12.73
2018-12-02T09:55:49.281Z,12.78
2018-12-02T09:58:26.514Z,12.62
2018-12-02T10:01:05.784Z,12.72
2018-12-02T10:03:42.225Z,12.73
2018-12-02T10:06:17.126Z,12.69
2018-12-02T10:08:46.722Z,12.73
2018-12-02T10:11:16.703Z,12.69
2018-12-02T10:13:46.555Z,12.73
2018-12-02T10:16:19.055Z,12.75
2018-12-02T10:18:46.706Z,12.75
2018-12-02T10:21:19.144Z,12.80
2018-12-02T10:23:49.122Z,12.84
2018-12-02T10:26:21.957Z,12.86
2018-12-02T10:28:54.366Z,12.92
2018-12-02T10:31:24.877Z,13.24
2018-12-02T10:33:54.519Z,13.40
2018-12-02T10:36:26.486Z,13.22
2018-12-02T10:38:56.400Z,13.12
2018-12-02T10:41:27.162Z,13.12
2018-12-02T10:43:56.630Z,13.10
2018-12-02T10:46:26.117Z,13.12
2018-12-02T10:48:57.277Z,13.06
2018-12-02T10:51:25.184Z,13.09
2018-12-02T10:54:00.043Z,13.08
2018-12-02T10:56:29.926Z,13.18
2018-12-02T10:58:59.349Z,13.18
2018-12-02T11:01:42.380Z,13.21
2018-12-02T11:04:14.973Z,13.13
2018-12-02T11:06:46.581Z,13.21
2018-12-02T11:09:18.883Z,13.30
2018-12-02T11:11:51.570Z,13.32
2018-12-02T11:14:28.439Z,13.42
2018-12-02T11:16:57.879Z,13.36
2018-12-02T11:19:29.108Z,13.38
2018-12-02T11:21:59.311Z,13.39
2018-12-02T11:24:29.285Z,13.40
2018-12-02T11:26:58.635Z,13.34
2018-12-02T11:29:33.687Z,13.42
2018-12-02T11:32:06.123Z,13.49
2018-12-02T11:34:36.813Z,13.41
2018-12-02T11:37:07.110Z,13.77
2018-12-02T11:39:37.313Z,13.57
2018-12-02T11:42:07.392Z,13.60
2018-12-02T11:44:36.793Z,13.59
2018-12-02T11:47:14.365Z,13.59
2018-12-02T11:49:49.679Z,13.59
2018-12-02T11:52:22.382Z,13.56
2018-12-02T11:54:51.589Z,13.62
2018-12-02T11:57:26.534Z,13.89
2018-12-02T11:59:54.376Z,13.75
2018-12-02T12:02:24.326Z,13.72
2018-12-02T12:04:54.262Z,13.67
2018-12-02T12:07:25.514Z,13.69
2018-12-02T12:09:59.394Z,13.70
2018-12-02T12:12:28.872Z,13.73
2018-12-02T12:14:58.372Z,13.73
2018-12-02T12:17:29.985Z,13.70
2018-12-02T12:19:59.576Z,13.72
2018-12-02T12:22:33.115Z,13.72
2018-12-02T12:25:02.983Z,13.77
2018-12-02T12:27:35.801Z,13.73
2018-12-02T12:30:09.042Z,13.71
2018-12-02T12:32:38.508Z,13.68
2018-12-02T12:35:11.435Z,13.68
2018-12-02T12:37:41.687Z,13.77
2018-12-02T12:40:33.583Z,13.72
2018-12-02T12:43:40.453Z,13.76
2018-12-02T12:46:12.521Z,13.62
2018-12-02T12:48:42.766Z,13.67
2018-12-02T12:51:12.700Z,13.67
2018-12-02T12:53:42.164Z,13.67
2018-12-02T12:56:15.321Z,13.72
2018-12-02T12:58:44.969Z,13.65
2018-12-02T13:01:14.378Z,13.69
2018-12-02T13:03:44.294Z,13.56
2018-12-02T13:06:13.473Z,13.53
2018-12-02T13:08:47.234Z,13.52
2018-12-02T13:11:17.106Z,13.88
2018-12-02T13:13:49.252Z,13.65
2018-12-02T13:16:24.531Z,13.60
2018-12-02T13:18:57.970Z,13.62
2018-12-02T13:21:28.969Z,13.62
2018-12-02T13:23:58.786Z,13.63
2018-12-02T13:26:31.766Z,13.60
2018-12-02T13:29:01.470Z,13.47
2018-12-02T13:31:38.086Z,13.53
2018-12-02T13:34:08.317Z,13.45
2018-12-02T13:36:39.785Z,13.46
2018-12-02T13:39:12.500Z,13.51
2018-12-02T13:41:42.032Z,13.47
2018-12-02T13:44:11.663Z,13.50
2018-12-02T13:46:43.201Z,13.39
2018-12-02T13:49:13.088Z,13.30
2018-12-02T13:51:42.367Z,13.66
2018-12-02T13:54:32.018Z,13.56
2018-12-02T13:57:01.792Z,13.44
2018-12-02T13:59:31.259Z,13.48
2018-12-02T14:02:06.596Z,13.46
2018-12-02T14:04:36.068Z,13.73
2018-12-02T14:07:08.792Z,13.42
2018-12-02T14:09:38.264Z,13.46
2018-12-02T14:12:09.872Z,13.41
2018-12-02T14:14:43.088Z,13.40
2018-12-02T14:17:18.971Z,13.41
2018-12-02T14:19:53.910Z,13.48
2018-12-02T14:22:23.120Z,13.44
2018-12-02T14:24:55.836Z,13.39
2018-12-02T14:27:30.374Z,13.28
2018-12-02T14:29:58.279Z,13.29
2018-12-02T14:32:28.381Z,13.37
2018-12-02T14:34:57.990Z,13.33
2018-12-02T14:37:27.736Z,13.25
2018-12-02T14:39:59.329Z,13.28
2018-12-02T14:42:28.972Z,13.24
2018-12-02T14:44:58.610Z,13.31
2018-12-02T14:47:27.951Z,13.32
2018-12-02T14:50:02.975Z,13.25
2018-12-02T14:52:35.625Z,13.27
2018-12-02T14:55:07.238Z,13.30
2018-12-02T14:57:36.670Z,13.34
2018-12-02T15:00:16.849Z,13.37
2018-12-02T15:02:45.239Z,13.28
2018-12-02T15:05:17.475Z,13.38
2018-12-02T15:07:46.957Z,13.34
2018-12-02T15:10:17.466Z,13.33
2018-12-02T15:12:48.463Z,13.34
2018-12-02T15:15:21.259Z,13.32
2018-12-02T15:17:56.396Z,13.28
2018-12-02T15:20:25.728Z,13.23
2018-12-02T15:22:58.425Z,13.22
2018-12-02T15:25:28.216Z,13.24
2018-12-02T15:27:58.682Z,13.25
2018-12-02T15:30:28.231Z,13.17
2018-12-02T15:32:57.655Z,13.20
2018-12-02T15:35:30.074Z,13.20
2018-12-02T15:37:59.507Z,13.24
2018-12-02T15:40:29.106Z,13.24
2018-12-02T15:42:59.931Z,13.29
2018-12-02T15:45:29.718Z,13.31
2018-12-02T15:47:58.638Z,13.21
2018-12-02T15:50:27.622Z,13.21
2018-12-02T15:52:56.525Z,13.16
2018-12-02T15:55:29.805Z,13.13
2018-12-02T15:57:59.640Z,13.12
2018-12-02T16:00:29.818Z,13.08
2018-12-02T16:02:58.748Z,13.17
2018-12-02T16:05:27.643Z,13.15
2018-12-02T16:07:56.539Z,13.44
2018-12-02T16:10:25.463Z,13.36
2018-12-02T16:12:54.519Z,13.19
2018-12-02T16:15:28.108Z,13.33
2018-12-02T16:17:56.997Z,13.22
2018-12-02T16:20:33.261Z,13.26
2018-12-02T16:23:02.186Z,13.27
2018-12-02T16:25:31.073Z,13.23
2018-12-02T16:27:59.966Z,13.22
2018-12-02T16:30:28.838Z,13.25
2018-12-02T16:32:57.749Z,13.20
2018-12-02T16:35:26.608Z,13.23
2018-12-02T16:37:55.968Z,13.27
2018-12-02T16:40:25.734Z,13.18
2018-12-02T16:42:55.749Z,13.22
2018-12-02T16:45:24.642Z,13.23
2018-12-02T16:47:54.851Z,13.26
2018-12-02T16:50:30.909Z,13.23
2018-12-02T16:53:34.297Z,13.24
2018-12-02T16:56:14.246Z,13.11
2018-12-02T16:59:14.984Z,13.16
2018-12-02T17:01:46.129Z,13.16
2018-12-02T17:04:15.196Z,13.17
2018-12-02T17:06:44.051Z,13.21
2018-12-02T17:09:13.348Z,13.15
2018-12-02T17:11:42.939Z,13.15
2018-12-02T17:14:11.847Z,13.16
2018-12-02T17:16:40.726Z,13.17
2018-12-02T17:19:09.634Z,13.13
2018-12-02T17:21:38.511Z,13.20
2018-12-02T17:24:08.731Z,13.18
2018-12-02T17:26:37.645Z,13.15
2018-12-02T17:29:09.090Z,13.13
2018-12-02T17:31:43.960Z,13.17
2018-12-02T17:34:12.852Z,13.22
2018-12-02T17:36:41.739Z,13.23
2018-12-02T17:39:15.603Z,13.12
2018-12-02T17:41:47.150Z,13.17
2018-12-02T17:44:16.056Z,13.06
2018-12-02T17:46:44.958Z,13.16
2018-12-02T17:49:13.869Z,13.18
2018-12-02T17:51:42.809Z,13.12
2018-12-02T17:54:11.638Z,13.10
2018-12-02T17:56:40.545Z,13.00
2018-12-02T17:59:09.475Z,13.01
2018-12-02T18:01:38.296Z,12.97
2018-12-02T18:04:08.011Z,13.29
2018-12-02T18:06:36.910Z,13.12
2018-12-02T18:09:09.549Z,13.14
2018-12-02T18:11:38.483Z,13.09
2018-12-02T18:14:07.469Z,13.11
2018-12-02T18:16:36.388Z,13.17
2018-12-02T18:19:05.965Z,13.21
2018-12-02T18:21:34.867Z,13.17
2018-12-02T18:24:03.742Z,13.17
2018-12-02T18:26:32.655Z,13.13
2018-12-02T18:29:01.546Z,13.11
2018-12-02T18:31:30.453Z,13.16
2018-12-02T18:33:59.354Z,13.12
2018-12-02T18:36:32.895Z,13.20
2018-12-02T18:39:01.826Z,13.24
2018-12-02T18:41:38.648Z,13.17
2018-12-02T18:44:09.601Z,13.21
2018-12-02T18:46:38.505Z,13.24
2018-12-02T18:49:07.462Z,13.14
2018-12-02T18:51:36.341Z,13.18
2018-12-02T18:54:06.379Z,13.22
2018-12-02T18:56:35.294Z,13.46
2018-12-02T18:59:04.232Z,13.19
2018-12-02T19:01:33.162Z,13.19
2018-12-02T19:04:02.438Z,13.09
2018-12-02T19:06:31.364Z,13.19
2018-12-02T19:09:00.247Z,13.17
2018-12-02T19:11:29.147Z,13.11
2018-12-02T19:13:58.053Z,13.11
2018-12-02T19:16:26.968Z,13.15
2018-12-02T19:18:55.857Z,13.09
2018-12-02T19:21:26.643Z,13.16
2018-12-02T19:23:57.222Z,13.15
2018-12-02T19:26:26.049Z,13.16
2018-12-02T19:28:54.936Z,13.42
2018-12-02T19:31:23.813Z,13.36
2018-12-02T19:33:54.779Z,13.23
2018-12-02T19:36:38.398Z,13.51
2018-12-02T19:39:11.309Z,13.29
2018-12-02T19:41:40.207Z,13.33
2018-12-02T19:44:09.129Z,13.35
2018-12-02T19:46:38.029Z,13.33
2018-12-02T19:49:07.010Z,13.41
2018-12-02T19:51:35.887Z,13.32
2018-12-02T19:54:04.841Z,13.38
2018-12-02T19:56:33.736Z,13.30
2018-12-02T19:59:02.643Z,13.36
2018-12-02T20:01:31.552Z,13.39
2018-12-02T20:04:00.463Z,13.36
2018-12-02T20:06:29.329Z,13.35
2018-12-02T20:08:58.248Z,13.39
2018-12-02T20:11:27.159Z,13.45
2018-12-02T20:13:56.061Z,13.46
2018-12-02T20:16:24.956Z,13.42
2018-12-02T20:18:53.869Z,13.42
2018-12-02T20:21:23.965Z,13.41
2018-12-02T20:24:11.070Z,13.41
2018-12-02T20:26:39.975Z,13.75
2018-12-02T20:29:08.933Z,13.61
2018-12-02T20:31:37.833Z,13.88
2018-12-02T20:34:06.965Z,13.59
2018-12-02T20:36:35.951Z,13.61
2018-12-02T20:39:08.669Z,13.85
2018-12-02T20:41:37.554Z,13.70
2018-12-02T20:44:06.750Z,13.62
2018-12-02T20:46:35.655Z,13.55
2018-12-02T20:49:04.525Z,13.50
2018-12-02T20:51:33.452Z,13.52
2018-12-02T20:54:02.352Z,13.50
2018-12-02T20:56:31.231Z,13.49
2018-12-02T20:59:00.112Z,13.49
2018-12-02T21:01:28.992Z,13.57
2018-12-02T21:03:58.772Z,13.50
2018-12-02T21:06:27.662Z,13.57
2018-12-02T21:08:56.537Z,13.80
2018-12-02T21:11:25.442Z,13.61
2018-12-02T21:13:54.347Z,13.57
2018-12-02T21:16:23.248Z,13.54
2018-12-02T21:18:52.149Z,13.59
2018-12-02T21:21:21.087Z,13.55
2018-12-02T21:23:49.979Z,13.58
2018-12-02T21:26:18.857Z,13.61
2018-12-02T21:28:47.768Z,13.56
2018-12-02T21:31:16.656Z,13.45
2018-12-02T21:33:45.579Z,13.53
2018-12-02T21:36:14.457Z,13.55
2018-12-02T21:38:43.363Z,13.53
2018-12-02T21:41:12.254Z,13.44
2018-12-02T21:43:41.152Z,13.39
2018-12-02T21:46:10.044Z,13.46
2018-12-02T21:48:38.939Z,13.40
2018-12-02T21:51:07.880Z,13.36
2018-12-02T21:53:36.783Z,13.34
2018-12-02T21:56:06.170Z,13.35
2018-12-02T21:58:35.098Z,13.33
2018-12-02T22:01:16.272Z,13.32
2018-12-02T22:03:45.195Z,13.28
2018-12-02T22:06:14.116Z,13.26
2018-12-02T22:08:43.055Z,13.26
2018-12-02T22:11:11.974Z,13.24
2018-12-02T22:13:43.392Z,13.19
2018-12-02T22:16:09.807Z,13.26
2018-12-02T22:18:38.716Z,13.22
2018-12-02T22:21:07.641Z,13.27
2018-12-02T22:23:36.547Z,13.27
2018-12-02T22:26:05.480Z,13.27
2018-12-02T22:28:34.403Z,13.33
2018-12-02T22:31:03.280Z,13.29
2018-12-02T22:33:32.185Z,13.35
2018-12-02T22:36:01.058Z,13.28
2018-12-02T22:38:29.970Z,13.31
2018-12-02T22:40:58.914Z,13.38
2018-12-02T22:43:27.814Z,13.37
2018-12-02T22:45:56.707Z,13.34
2018-12-02T22:48:25.607Z,13.65
2018-12-02T22:50:54.519Z,13.50
2018-12-02T22:53:23.649Z,13.42
2018-12-02T22:55:52.558Z,13.47
2018-12-02T22:58:21.454Z,13.50
2018-12-02T23:01:08.231Z,13.48
2018-12-02T23:03:37.145Z,13.49
2018-12-02T23:06:06.167Z,13.50
2018-12-02T23:08:35.052Z,13.53
2018-12-02T23:11:03.974Z,13.45
2018-12-02T23:13:32.868Z,13.52
2018-12-02T23:16:01.750Z,13.53
2018-12-02T23:18:30.673Z,13.47
2018-12-02T23:20:59.543Z,13.51
2018-12-02T23:23:28.447Z,13.46
2018-12-02T23:25:57.355Z,13.42
2018-12-02T23:28:26.264Z,13.56
2018-12-02T23:30:55.164Z,13.55
2018-12-02T23:33:24.080Z,13.62
2018-12-02T23:35:52.990Z,13.64
2018-12-02T23:38:21.911Z,13.53
2018-12-02T23:40:50.788Z,13.59
2018-12-02T23:43:19.672Z,13.62
2018-12-02T23:45:48.595Z,13.64
2018-12-02T23:48:17.506Z,13.65
2018-12-02T23:50:46.416Z,13.59
2018-12-02T23:53:15.311Z,13.63
2018-12-02T23:55:44.216Z,13.62
2018-12-02T23:58:13.083Z,13.58
